The Hangar Logo

METARs in Plain English
Latest METAR information for EGVN - BRIZE NORTON

EGVN 251750Z 24004KT 9999 FEW022CB SCT090 24/13 Q1013 TEMPO SHRA SCT020CB

In plain english is....

This is a METAR report for EGVN - BRIZE NORTON .
The report was made 59 minutes ago, at 17:50 UTC.
The wind was blowing at a speed of 4 knots (4.6 miles per hour, 2.1 metres per second) from the West/Southwest (240°).
The visibility was greater than 6.2 miles (greater than 10 kilometres).
There were a few cumulonimbus clouds at a height of 2200 feet (671 metres) and scattered clouds at a height of 9000 feet (2743 metres).
The temperature was 24°C (75°F), a dew point of 13°C (55°F) and a relative humidity of 50.2%.
The altimeter setting (airfield QNH) was 1,013 hPa (29.91 inHg).
Other remarks TEMPO SHRA SCT020CB.

UK Mainland

Ireland

Channel Islands

France

Other



Enter
Tel: 07092 887559 - Fax: 07092 183262

Content copyright © 1999-2016 TheHangar.co.uk. All rights reserved.
Please send your questions, comments, or bug reports to the Webmaster.